Time;durP1;ratioP1;P1;durP2;ratioP2;P2;SDS_P1;SDS_P2;PMS_P1;PMS_P2;Temp;Humidity;BMP_temperature;BMP_pressure;BME280_temperature;BME280_humidity;BME280_pressure;Samples;Min_cycle;Max_cycle;Signal;HPM_P1;HPM_P2
2024/02/16 00:01:06;;;;;;;;;;;;;;;22.26;29.93;101664.77;102739;1295;62144;-79
2024/02/16 00:03:31;;;;;;;;;;;;;;;22.26;29.93;101663.88;102710;1291;61443;-81
2024/02/16 00:05:57;;;;;;;;;;;;;;;22.26;29.98;101666.92;102843;1290;62374;-79
2024/02/16 00:08:23;;;;;;;;;;;;;;;22.27;30.08;101666.38;102758;1296;61414;-83
2024/02/16 00:10:48;;;;;;;;;;;;;;;22.27;29.92;101668.48;102704;1291;61403;-80
2024/02/16 00:13:14;;;;;;;;;;;;;;;22.27;29.82;101667.05;102799;1291;61312;-81
2024/02/16 00:15:39;;;;;;;;;;;;;;;22.27;29.90;101667.42;102722;1291;62118;-80
2024/02/16 00:18:05;;;;;;;;;;;;;;;22.27;30.02;101668.14;102856;1292;61391;-81
2024/02/16 00:20:31;;;;;;;;;;;;;;;22.27;30.00;101668.33;102772;1291;61465;-81
2024/02/16 00:22:57;;;;;;;;;;;;;;;22.27;29.95;101667.20;102737;1289;62687;-81
2024/02/16 00:25:23;;;;;;;;;;;;;;;22.27;29.89;101668.27;102801;1294;62367;-80
2024/02/16 00:27:48;;;;;;;;;;;;;;;22.28;29.88;101668.98;102829;1293;61270;-81
2024/02/16 00:30:15;;;;;;;;;;;;;;;22.28;29.99;101672.59;102816;1291;61512;-82
2024/02/16 00:32:41;;;;;;;;;;;;;;;22.27;30.00;101672.06;102863;1294;61311;-80
2024/02/16 00:35:07;;;;;;;;;;;;;;;22.28;30.00;101672.39;102809;1291;61294;-80
2024/02/16 00:37:33;;;;;;;;;;;;;;;22.28;29.87;101672.91;102693;1295;61406;-82
2024/02/16 00:39:58;;;;;;;;;;;;;;;22.27;29.80;101676.70;102756;1291;75523;-80
2024/02/16 00:42:24;;;;;;;;;;;;;;;22.28;29.94;101674.20;102764;1291;62271;-80
2024/02/16 00:44:50;;;;;;;;;;;;;;;22.29;29.94;101676.66;102814;1292;61362;-81
2024/02/16 00:47:16;;;;;;;;;;;;;;;22.28;29.89;101672.94;102736;1291;61382;-80
2024/02/16 00:49:43;;;;;;;;;;;;;;;22.28;29.95;101672.56;102707;1295;61392;-82
2024/02/16 00:52:10;;;;;;;;;;;;;;;22.27;29.98;101669.89;102791;1292;61908;-80
2024/02/16 00:54:36;;;;;;;;;;;;;;;22.28;29.79;101667.54;102738;1297;62268;-80
2024/02/16 00:57:02;;;;;;;;;;;;;;;22.28;29.87;101667.54;102771;1292;61302;-79
2024/02/16 00:59:29;;;;;;;;;;;;;;;22.28;29.93;101667.90;102833;1294;62523;-80
2024/02/16 01:01:55;;;;;;;;;;;;;;;22.28;29.91;101666.80;102743;1290;61510;-80
2024/02/16 01:04:21;;;;;;;;;;;;;;;22.28;29.91;101665.55;102724;1295;61355;-80
2024/02/16 01:06:46;;;;;;;;;;;;;;;22.28;29.91;101662.89;102718;1295;61452;-80
2024/02/16 01:09:24;;;;;;;;;;;;;;;;;;;;;
2024/02/16 01:11:50;;;;;;;;;;;;;;;22.29;29.76;101662.84;102860;1291;74658;-79
2024/02/16 01:14:16;;;;;;;;;;;;;;;22.29;29.75;101663.02;102809;1292;61409;-78
2024/02/16 01:16:41;;;;;;;;;;;;;;;22.29;29.94;101663.02;102808;1291;61995;-81
2024/02/16 01:19:07;;;;;;;;;;;;;;;22.29;29.94;101666.05;102701;1297;61880;-80
2024/02/16 01:21:38;;;;;;;;;;;;;;;22.30;29.92;101666.75;102937;1290;74609;-81
2024/02/16 01:24:03;;;;;;;;;;;;;;;22.30;29.77;101666.02;102854;1294;61396;-81
2024/02/16 01:26:29;;;;;;;;;;;;;;;22.29;29.88;101664.44;102730;1292;63416;-80
2024/02/16 01:28:55;;;;;;;;;;;;;;;22.30;29.91;101663.87;102871;1294;61399;-78
2024/02/16 01:31:20;;;;;;;;;;;;;;;22.30;29.84;101665.45;102803;1294;62679;-82
2024/02/16 01:33:46;;;;;;;;;;;;;;;22.30;29.82;101663.89;102794;1294;74290;-81
2024/02/16 01:36:11;;;;;;;;;;;;;;;22.29;29.91;101663.91;102728;1292;61413;-80
2024/02/16 01:38:36;;;;;;;;;;;;;;;22.30;29.79;101660.82;102806;1294;62614;-80
2024/02/16 01:41:02;;;;;;;;;;;;;;;22.30;29.75;101658.12;102721;1294;61869;-81
2024/02/16 01:43:28;;;;;;;;;;;;;;;22.30;29.87;101653.27;102630;1295;62242;-80
2024/02/16 01:45:53;;;;;;;;;;;;;;;22.30;29.84;101652.58;102706;1290;61331;-79
2024/02/16 01:48:19;;;;;;;;;;;;;;;22.30;29.75;101648.08;102840;1294;61413;-81
2024/02/16 01:50:45;;;;;;;;;;;;;;;22.30;29.68;101649.15;102872;1294;61391;-80
2024/02/16 01:53:14;;;;;;;;;;;;;;;22.30;29.69;101651.13;102870;1292;61384;-80
2024/02/16 01:55:39;;;;;;;;;;;;;;;22.30;29.81;101650.92;102868;1290;74453;-81
2024/02/16 01:58:05;;;;;;;;;;;;;;;22.30;29.76;101651.28;102911;1292;62497;-79
2024/02/16 02:00:31;;;;;;;;;;;;;;;22.30;29.85;101649.86;102890;1292;61324;-80
2024/02/16 02:02:57;;;;;;;;;;;;;;;22.30;29.81;101650.21;102865;1294;61430;-81
2024/02/16 02:05:23;;;;;;;;;;;;;;;22.30;29.86;101647.71;102703;1294;61835;-81
2024/02/16 02:07:49;;;;;;;;;;;;;;;22.30;29.81;101648.93;102687;1295;61404;-80
2024/02/16 02:10:14;;;;;;;;;;;;;;;22.30;29.74;101646.45;102976;1291;61454;-82
2024/02/16 02:12:42;;;;;;;;;;;;;;;22.30;29.87;101646.61;102661;1291;61342;-80
2024/02/16 02:15:08;;;;;;;;;;;;;;;22.30;29.84;101644.30;102721;1292;72589;-80
2024/02/16 02:17:34;;;;;;;;;;;;;;;22.30;29.74;101646.79;102952;1294;74177;-81
2024/02/16 02:20:00;;;;;;;;;;;;;;;22.30;29.78;101642.84;102763;1291;61446;-80
2024/02/16 02:22:27;;;;;;;;;;;;;;;22.30;29.75;101648.94;102650;1292;61314;-81
2024/02/16 02:24:53;;;;;;;;;;;;;;;22.30;29.68;101644.80;102690;1292;61352;-80
2024/02/16 02:27:19;;;;;;;;;;;;;;;22.30;29.62;101645.21;102703;1291;62232;-80
2024/02/16 02:29:45;;;;;;;;;;;;;;;22.31;29.83;101648.20;102956;1292;61944;-82
2024/02/16 02:32:10;;;;;;;;;;;;;;;22.30;29.74;101650.73;102677;1295;61394;-80
2024/02/16 02:34:36;;;;;;;;;;;;;;;22.30;29.74;101652.02;102681;1297;61467;-80
2024/02/16 02:37:02;;;;;;;;;;;;;;;22.30;29.65;101655.39;102963;1292;61443;-79
2024/02/16 02:39:27;;;;;;;;;;;;;;;22.30;29.75;101656.09;102887;1294;62607;-80
2024/02/16 02:41:52;;;;;;;;;;;;;;;22.31;29.72;101655.02;103002;1294;61400;-80
2024/02/16 02:44:21;;;;;;;;;;;;;;;22.30;29.66;101659.15;102958;1294;61343;-81
2024/02/16 02:46:47;;;;;;;;;;;;;;;22.31;29.69;101665.05;102763;1291;61376;-80
2024/02/16 02:49:12;;;;;;;;;;;;;;;22.31;29.74;101663.81;102690;1292;61445;-81
2024/02/16 02:51:38;;;;;;;;;;;;;;;22.31;29.70;101660.91;102929;1291;61387;-80
2024/02/16 02:54:03;;;;;;;;;;;;;;;22.31;29.66;101659.48;102809;1291;61496;-81
2024/02/16 02:56:29;;;;;;;;;;;;;;;22.31;29.76;101662.73;102700;1297;61450;-80
2024/02/16 02:58:54;;;;;;;;;;;;;;;22.31;29.58;101663.61;102873;1289;61401;-81
2024/02/16 03:01:20;;;;;;;;;;;;;;;22.31;29.70;101668.25;102902;1294;62073;-79
2024/02/16 03:03:46;;;;;;;;;;;;;;;22.31;29.66;101666.66;102750;1294;61290;-80
2024/02/16 03:06:12;;;;;;;;;;;;;;;22.31;29.67;101669.88;102795;1294;62290;-81
2024/02/16 03:08:37;;;;;;;;;;;;;;;22.31;29.68;101674.02;102853;1294;61774;-79
2024/02/16 03:11:04;;;;;;;;;;;;;;;22.31;29.65;101677.23;102942;1294;62102;-80
2024/02/16 03:13:29;;;;;;;;;;;;;;;22.31;29.64;101676.88;102862;1293;74586;-81
2024/02/16 03:15:55;;;;;;;;;;;;;;;22.31;29.65;101679.92;102918;1292;61484;-80
2024/02/16 03:18:20;;;;;;;;;;;;;;;22.31;29.75;101680.25;102888;1292;61389;-80
2024/02/16 03:20:48;;;;;;;;;;;;;;;22.31;29.67;101677.73;102843;1294;62254;-81
2024/02/16 03:23:14;;;;;;;;;;;;;;;22.32;29.77;101681.14;102715;1295;62505;-79
2024/02/16 03:25:39;;;;;;;;;;;;;;;22.32;29.56;101681.52;102716;1295;61362;-80
2024/02/16 03:28:05;;;;;;;;;;;;;;;22.32;29.59;101680.95;102785;1292;62468;-81
2024/02/16 03:30:31;;;;;;;;;;;;;;;22.32;29.58;101677.90;102697;1295;62461;-81
2024/02/16 03:32:56;;;;;;;;;;;;;;;22.32;29.63;101681.48;102744;1294;61469;-81
2024/02/16 03:35:22;;;;;;;;;;;;;;;22.32;29.64;101682.56;102694;1294;61741;-80
2024/02/16 03:37:47;;;;;;;;;;;;;;;22.32;29.60;101682.02;102878;1293;62476;-80
2024/02/16 03:40:13;;;;;;;;;;;;;;;22.32;29.55;101681.48;102708;1294;62137;-80
2024/02/16 03:42:40;;;;;;;;;;;;;;;22.32;29.62;101682.92;102873;1294;61602;-79
2024/02/16 03:45:07;;;;;;;;;;;;;;;22.32;29.63;101682.21;102868;1293;72140;-79
2024/02/16 03:47:33;;;;;;;;;;;;;;;22.32;29.60;101682.17;102726;1290;61401;-80
2024/02/16 03:49:58;;;;;;;;;;;;;;;22.32;29.60;101685.27;102747;1295;61517;-81
2024/02/16 03:52:24;;;;;;;;;;;;;;;22.32;29.60;101687.77;102822;1294;61433;-80
2024/02/16 03:54:51;;;;;;;;;;;;;;;22.32;29.63;101689.03;102849;1294;61832;-80
2024/02/16 03:57:17;;;;;;;;;;;;;;;22.32;29.67;101693.13;102833;1289;62428;-79
2024/02/16 03:59:43;;;;;;;;;;;;;;;22.33;29.65;101690.76;102654;1294;61404;-81
2024/02/16 04:02:09;;;;;;;;;;;;;;;22.32;29.75;101689.89;102764;1292;61483;-80
2024/02/16 04:04:35;;;;;;;;;;;;;;;22.33;29.69;101695.58;102913;1294;61391;-80
2024/02/16 04:07:01;;;;;;;;;;;;;;;22.33;29.71;101694.17;102673;1294;72490;-80
2024/02/16 04:09:26;;;;;;;;;;;;;;;22.32;29.65;101696.69;102690;1295;61861;-79
2024/02/16 04:11:52;;;;;;;;;;;;;;;22.33;29.48;101694.50;102238;1290;703149;-80
2024/02/16 04:14:17;;;;;;;;;;;;;;;22.33;29.63;101697.73;102875;1295;61404;-80
2024/02/16 04:16:44;;;;;;;;;;;;;;;22.33;29.67;101695.61;102927;1292;61411;-81
2024/02/16 04:19:10;;;;;;;;;;;;;;;22.33;29.73;101693.23;102827;1291;72417;-80
2024/02/16 04:21:35;;;;;;;;;;;;;;;22.33;29.67;101693.43;102827;1294;62171;-82
2024/02/16 04:24:01;;;;;;;;;;;;;;;22.33;29.61;101692.17;102894;1290;61289;-81
2024/02/16 04:26:26;;;;;;;;;;;;;;;22.33;29.57;101692.52;102940;1294;61368;-80
2024/02/16 04:28:52;;;;;;;;;;;;;;;22.33;29.67;101693.41;102868;1290;61801;-82
2024/02/16 04:31:17;;;;;;;;;;;;;;;22.34;29.70;101693.58;102835;1291;73500;-80
2024/02/16 04:33:43;;;;;;;;;;;;;;;22.33;29.52;101693.25;102735;1297;61514;-80
2024/02/16 04:36:09;;;;;;;;;;;;;;;22.33;29.51;101691.27;102823;1289;62406;-81
2024/02/16 04:38:35;;;;;;;;;;;;;;;22.33;29.64;101695.03;102816;1296;61424;-81
2024/02/16 04:41:00;;;;;;;;;;;;;;;22.34;29.55;101695.19;102894;1294;61411;-81
2024/02/16 04:43:26;;;;;;;;;;;;;;;22.33;29.53;101699.33;102867;1295;61420;-80
2024/02/16 04:45:51;;;;;;;;;;;;;;;22.33;29.67;101701.13;102803;1293;74708;-81
2024/02/16 04:48:17;;;;;;;;;;;;;;;22.33;29.56;101708.27;102885;1294;61421;-80
2024/02/16 04:50:43;;;;;;;;;;;;;;;22.33;29.62;101710.27;102710;1295;62179;-80
2024/02/16 04:53:08;;;;;;;;;;;;;;;22.33;29.54;101716.20;102708;1294;61334;-79
2024/02/16 04:55:34;;;;;;;;;;;;;;;22.32;29.41;101711.23;102867;1294;61431;-80
2024/02/16 04:58:00;;;;;;;;;;;;;;;22.32;29.50;101713.77;102667;1295;74544;-80
2024/02/16 05:00:25;;;;;;;;;;;;;;;22.31;29.53;101714.53;102962;1294;62660;-80
2024/02/16 05:02:54;;;;;;;;;;;;;;;22.31;29.51;101717.05;103059;1295;61270;-80
2024/02/16 05:05:19;;;;;;;;;;;;;;;22.31;29.53;101719.05;102876;1294;61285;-79
2024/02/16 05:07:49;;;;;;;;;;;;;;;22.31;29.42;101721.16;102931;1295;61447;-80
2024/02/16 05:10:21;;;;;;;;;;;;;;;22.31;29.45;101720.27;102924;1295;61380;-80
2024/02/16 05:12:47;;;;;;;;;;;;;;;22.31;29.55;101724.95;102918;1294;62576;-82
2024/02/16 05:15:13;;;;;;;;;;;;;;;22.31;29.43;101724.56;102973;1298;61376;-79
2024/02/16 05:17:39;;;;;;;;;;;;;;;22.32;29.53;101728.68;102730;1297;62043;-79
2024/02/16 05:20:09;;;;;;;;;;;;;;;22.32;29.55;101732.94;103011;1295;61346;-79
2024/02/16 05:22:35;;;;;;;;;;;;;;;22.31;29.40;101734.79;103249;1294;61184;-80
2024/02/16 05:25:00;;;;;;;;;;;;;;;22.31;29.43;101733.19;103184;1290;63023;-80
2024/02/16 05:27:26;;;;;;;;;;;;;;;22.31;29.45;101735.32;103161;1291;61901;-80
2024/02/16 05:29:52;;;;;;;;;;;;;;;22.31;29.48;101737.30;103179;1291;61334;-80
2024/02/16 05:32:18;;;;;;;;;;;;;;;22.31;29.55;101740.34;102912;1290;61424;-81
2024/02/16 05:34:43;;;;;;;;;;;;;;;22.31;29.54;101742.33;103236;1290;62664;-83
2024/02/16 05:37:09;;;;;;;;;;;;;;;22.28;29.46;101738.72;102922;1296;71940;-80
2024/02/16 05:39:53;;;;;;;;;;;;;;;22.26;29.58;101739.41;103080;1295;61394;-78
2024/02/16 05:42:21;;;;;;;;;;;;;;;22.23;29.53;101749.80;103013;1295;61374;-81
2024/02/16 05:44:46;;;;;;;;;;;;;;;22.19;29.47;101755.77;104051;1289;61354;-81
2024/02/16 05:47:12;;;;;;;;;;;;;;;22.14;29.39;101759.11;103434;1294;61417;-80
2024/02/16 05:49:39;;;;;;;;;;;;;;;22.09;29.33;101756.58;103271;1295;61371;-81
2024/02/16 05:52:28;;;;;;;;;;;;;;;22.03;29.24;101758.88;103649;1290;61384;-81
2024/02/16 05:54:50;;;;;;;;;;;;;;;21.98;29.17;101759.02;103463;1289;62016;-81
2024/02/16 05:57:16;;;;;;;;;;;;;;;21.93;29.16;101758.75;103822;1290;61944;-83
2024/02/16 05:59:42;;;;;;;;;;;;;;;21.90;29.27;101766.50;103911;1289;61361;-80
2024/02/16 06:02:08;;;;;;;;;;;;;;;21.85;29.23;101766.27;103711;1291;61309;-82
2024/02/16 06:04:34;;;;;;;;;;;;;;;21.81;29.18;101769.73;104033;1294;61403;-82
2024/02/16 06:06:59;;;;;;;;;;;;;;;21.76;29.09;101765.52;104376;1291;61144;-81
2024/02/16 06:09:25;;;;;;;;;;;;;;;21.73;29.11;101764.45;103949;1289;73289;-80
2024/02/16 06:11:51;;;;;;;;;;;;;;;21.71;29.04;101765.29;104647;1293;60581;-80
2024/02/16 06:14:16;;;;;;;;;;;;;;;21.71;29.01;101767.79;104385;1292;59899;-80
2024/02/16 06:16:43;;;;;;;;;;;;;;;21.72;29.04;101774.73;104714;1293;61350;-80
2024/02/16 06:19:09;;;;;;;;;;;;;;;21.74;29.13;101774.03;104773;1295;61316;-78
2024/02/16 06:21:35;;;;;;;;;;;;;;;21.79;29.01;101775.61;104548;1289;61559;-80
2024/02/16 06:24:01;;;;;;;;;;;;;;;21.82;29.03;101776.49;104733;1290;61315;-80
2024/02/16 06:26:26;;;;;;;;;;;;;;;21.84;28.91;101777.44;104644;1289;61384;-81
2024/02/16 06:28:52;;;;;;;;;;;;;;;21.86;29.02;101777.64;104815;1290;61299;-78
2024/02/16 06:31:18;;;;;;;;;;;;;;;21.89;28.92;101783.59;104444;1289;60102;-78
2024/02/16 06:33:44;;;;;;;;;;;;;;;21.92;28.95;101783.96;104419;1289;61166;-78
2024/02/16 06:36:09;;;;;;;;;;;;;;;21.95;28.99;101786.83;105906;1290;59727;-80
2024/02/16 06:38:37;;;;;;;;;;;;;;;21.97;28.98;101789.36;105924;1289;60301;-79
2024/02/16 06:41:03;;;;;;;;;;;;;;;22.00;28.98;101792.05;105928;1289;59935;-79
2024/02/16 06:43:28;;;;;;;;;;;;;;;22.03;29.07;101793.84;106102;1290;59264;-80
2024/02/16 06:45:56;;;;;;;;;;;;;;;22.05;29.01;101789.60;105909;1290;59515;-80
2024/02/16 06:48:22;;;;;;;;;;;;;;;22.08;28.97;101793.73;105991;1290;58858;-79
2024/02/16 06:50:47;;;;;;;;;;;;;;;22.12;29.00;101794.25;106142;1289;59477;-80
2024/02/16 06:53:13;;;;;;;;;;;;;;;22.13;29.09;101796.67;106102;1290;59570;-79
2024/02/16 06:55:38;;;;;;;;;;;;;;;22.16;29.00;101799.34;106022;1289;74565;-80
2024/02/16 06:58:04;;;;;;;;;;;;;;;22.16;29.06;101802.79;106104;1289;59457;-81
2024/02/16 07:00:29;;;;;;;;;;;;;;;22.09;29.04;101804.11;106053;1290;59375;-80
2024/02/16 07:02:55;;;;;;;;;;;;;;;21.99;29.33;101803.43;106023;1289;60320;-80
2024/02/16 07:05:20;;;;;;;;;;;;;;;21.96;29.36;101800.23;106044;1291;59484;-81
2024/02/16 07:07:46;;;;;;;;;;;;;;;21.90;29.38;101801.80;105797;1291;75465;-79
2024/02/16 07:10:13;;;;;;;;;;;;;;;21.84;29.34;101805.58;106021;1292;59023;-79
2024/02/16 07:12:39;;;;;;;;;;;;;;;21.81;29.35;101802.48;105905;1291;59611;-79
2024/02/16 07:15:05;;;;;;;;;;;;;;;21.80;29.40;101806.66;105953;1291;59212;-79
2024/02/16 07:17:31;;;;;;;;;;;;;;;21.78;29.19;101804.83;105970;1291;59065;-79
2024/02/16 07:19:57;;;;;;;;;;;;;;;21.78;29.19;101801.80;105995;1291;59006;-79
2024/02/16 07:22:23;;;;;;;;;;;;;;;21.79;29.10;101804.98;106002;1291;59344;-79
2024/02/16 07:24:48;;;;;;;;;;;;;;;21.80;29.21;101800.21;105846;1291;59245;-80
2024/02/16 07:27:14;;;;;;;;;;;;;;;21.82;29.02;101804.76;106016;1291;59143;-79
2024/02/16 07:29:39;;;;;;;;;;;;;;;21.86;28.99;101804.53;105854;1291;59159;-80
2024/02/16 07:32:05;;;;;;;;;;;;;;;21.89;28.99;101802.54;105911;1291;58863;-80
2024/02/16 07:34:30;;;;;;;;;;;;;;;21.93;28.95;101798.94;105908;1291;59212;-79
2024/02/16 07:36:57;;;;;;;;;;;;;;;21.96;28.95;101796.80;105944;1291;60113;-77
2024/02/16 07:39:24;;;;;;;;;;;;;;;21.99;29.02;101800.03;105983;1291;60238;-78
2024/02/16 07:41:50;;;;;;;;;;;;;;;22.02;28.98;101800.21;105857;1291;60160;-78
2024/02/16 07:44:15;;;;;;;;;;;;;;;22.04;29.04;101803.27;104172;1296;61410;-78
2024/02/16 07:46:41;;;;;;;;;;;;;;;22.06;28.97;101805.64;103786;1293;59380;-79
2024/02/16 07:49:07;;;;;;;;;;;;;;;22.09;29.10;101806.77;104151;1291;73333;-81
2024/02/16 07:51:32;;;;;;;;;;;;;;;22.09;29.15;101806.77;104416;1296;63462;-80
2024/02/16 07:53:58;;;;;;;;;;;;;;;22.08;29.13;101806.98;104386;1291;61492;-82
2024/02/16 07:56:23;;;;;;;;;;;;;;;22.02;29.14;101807.88;104676;1291;61304;-80
2024/02/16 07:58:49;;;;;;;;;;;;;;;21.91;29.14;101810.67;104560;1291;61320;-79
2024/02/16 08:01:17;;;;;;;;;;;;;;;21.76;29.31;101812.09;104222;1295;72495;-80
2024/02/16 08:03:43;;;;;;;;;;;;;;;21.71;29.43;101811.83;104493;1291;74154;-80
2024/02/16 08:06:09;;;;;;;;;;;;;;;21.70;29.62;101813.16;104484;1293;61316;-79
2024/02/16 08:08:34;;;;;;;;;;;;;;;21.69;29.58;101814.30;104783;1289;61363;-79
2024/02/16 08:11:00;;;;;;;;;;;;;;;21.71;29.70;101811.52;104620;1291;61310;-80
2024/02/16 08:13:26;;;;;;;;;;;;;;;21.73;29.64;101814.44;104642;1290;61321;-79
2024/02/16 08:15:51;;;;;;;;;;;;;;;21.77;29.83;101817.23;104645;1290;61287;-78
2024/02/16 08:18:17;;;;;;;;;;;;;;;21.81;30.00;101816.48;104914;1289;61324;-78
2024/02/16 08:20:43;;;;;;;;;;;;;;;21.84;29.94;101815.94;104554;1290;61270;-79
2024/02/16 08:23:09;;;;;;;;;;;;;;;21.88;30.04;101822.35;104547;1290;61429;-80
2024/02/16 08:25:34;;;;;;;;;;;;;;;21.92;30.03;101824.08;104728;1290;62723;-78
2024/02/16 08:28:00;;;;;;;;;;;;;;;21.95;30.03;101822.48;104539;1289;61288;-79
2024/02/16 08:30:25;;;;;;;;;;;;;;;21.98;29.95;101824.47;104650;1291;59789;-79
2024/02/16 08:32:51;;;;;;;;;;;;;;;22.00;29.90;101825.58;104604;1291;61376;-79
2024/02/16 08:35:18;;;;;;;;;;;;;;;22.02;29.84;101821.16;104569;1289;61801;-80
2024/02/16 08:37:44;;;;;;;;;;;;;;;22.04;29.82;101826.05;104412;1291;74022;-79
2024/02/16 08:40:14;;;;;;;;;;;;;;;22.07;29.75;101821.95;104485;1290;61324;-79
2024/02/16 08:42:41;;;;;;;;;;;;;;;22.08;29.63;101822.21;104464;1290;61377;-79
2024/02/16 08:45:07;;;;;;;;;;;;;;;22.10;29.69;101823.17;106124;1289;74412;-80
2024/02/16 08:47:32;;;;;;;;;;;;;;;22.12;29.57;101824.50;106123;1290;59954;-80
2024/02/16 08:49:58;;;;;;;;;;;;;;;22.15;29.68;101827.40;106181;1289;59030;-79
2024/02/16 08:52:23;;;;;;;;;;;;;;;22.17;29.78;101827.82;106008;1289;59599;-80
2024/02/16 08:54:49;;;;;;;;;;;;;;;22.18;29.58;101833.32;105906;1291;59088;-80
2024/02/16 08:57:15;;;;;;;;;;;;;;;22.14;29.66;101834.45;106078;1289;59735;-81
2024/02/16 08:59:40;;;;;;;;;;;;;;;22.05;29.46;101829.38;105983;1289;59505;-81
2024/02/16 09:02:06;;;;;;;;;;;;;;;21.90;29.51;101836.19;106072;1289;60004;-80
2024/02/16 09:04:31;;;;;;;;;;;;;;;21.84;29.58;101833.50;105918;1289;60171;-81
2024/02/16 09:06:57;;;;;;;;;;;;;;;21.82;29.49;101833.64;106124;1289;59139;-81
2024/02/16 09:09:23;;;;;;;;;;;;;;;21.80;29.53;101835.00;106182;1289;59234;-80
2024/02/16 09:11:48;;;;;;;;;;;;;;;21.75;29.70;101829.89;106086;1289;74363;-81
2024/02/16 09:14:14;;;;;;;;;;;;;;;21.74;29.69;101839.30;105965;1289;60082;-81
2024/02/16 09:16:40;;;;;;;;;;;;;;;21.70;29.41;101833.63;106042;1290;60259;-82
2024/02/16 09:19:05;;;;;;;;;;;;;;;21.68;29.42;101834.95;105976;1289;60534;-80
2024/02/16 09:21:31;;;;;;;;;;;;;;;21.68;29.53;101835.85;105976;1289;59747;-81
2024/02/16 09:24:01;;;;;;;;;;;;;;;21.68;29.32;101838.36;105970;1290;59500;-81
2024/02/16 09:26:30;;;;;;;;;;;;;;;21.68;29.32;101836.73;106031;1289;61498;-81
2024/02/16 09:28:56;;;;;;;;;;;;;;;21.67;29.24;101835.35;105938;1290;60361;-80
2024/02/16 09:31:22;;;;;;;;;;;;;;;21.65;29.30;101835.52;106000;1291;59397;-80
2024/02/16 09:33:48;;;;;;;;;;;;;;;21.64;29.18;101831.27;106197;1289;59229;-81
2024/02/16 09:36:14;;;;;;;;;;;;;;;21.63;29.17;101835.23;106190;1289;59046;-81
2024/02/16 09:38:39;;;;;;;;;;;;;;;21.63;29.17;101833.11;106163;1288;59205;-81
2024/02/16 09:41:04;;;;;;;;;;;;;;;21.62;29.17;101833.52;105954;1291;59432;-81
2024/02/16 09:43:30;;;;;;;;;;;;;;;21.57;29.13;101830.40;106160;1291;59482;-80
2024/02/16 09:45:56;;;;;;;;;;;;;;;21.54;28.96;101829.67;105615;1289;73537;-81
2024/02/16 09:48:22;;;;;;;;;;;;;;;21.49;28.84;101830.48;104683;1290;61338;-82
2024/02/16 09:50:48;;;;;;;;;;;;;;;21.46;28.75;101829.76;104847;1289;61385;-80
2024/02/16 09:53:13;;;;;;;;;;;;;;;21.44;28.80;101828.60;104780;1290;61248;-80
2024/02/16 09:55:39;;;;;;;;;;;;;;;21.35;28.76;101827.27;104589;1292;63646;-81
2024/02/16 09:58:05;;;;;;;;;;;;;;;21.34;29.08;101824.67;104766;1291;61337;-84
2024/02/16 10:00:31;;;;;;;;;;;;;;;21.37;29.27;101822.88;105041;1289;61237;-80
2024/02/16 10:02:57;;;;;;;;;;;;;;;21.41;29.32;101817.47;104980;1289;61183;-81
2024/02/16 10:05:22;;;;;;;;;;;;;;;21.44;29.59;101820.15;104669;1288;61262;-82
2024/02/16 10:07:48;;;;;;;;;;;;;;;21.48;29.65;101816.38;105220;1291;61197;-80
2024/02/16 10:10:24;;;;;;;;;;;;;;;21.51;29.81;101813.66;105197;1288;61274;-82
2024/02/16 10:12:49;;;;;;;;;;;;;;;21.56;29.71;101809.88;104745;1290;61542;-79
2024/02/16 10:15:19;;;;;;;;;;;;;;;21.58;29.79;101808.47;104581;1292;61270;-80
2024/02/16 10:17:44;;;;;;;;;;;;;;;21.58;29.76;101807.20;104897;1289;75626;-79
2024/02/16 10:20:11;;;;;;;;;;;;;;;21.61;29.74;101801.14;104496;1289;61461;-79
2024/02/16 10:22:36;;;;;;;;;;;;;;;21.65;29.72;101800.23;104433;1290;61264;-80
2024/02/16 10:25:11;;;;;;;;;;;;;;;21.72;29.76;101800.48;104338;1295;61434;-79
2024/02/16 10:27:37;;;;;;;;;;;;;;;21.77;29.68;101793.39;106183;1289;74741;-79
2024/02/16 10:30:03;;;;;;;;;;;;;;;21.81;29.86;101787.42;105229;1289;61436;-79
2024/02/16 10:32:28;;;;;;;;;;;;;;;21.87;29.83;101788.20;104469;1291;61391;-78
2024/02/16 10:34:55;;;;;;;;;;;;;;;21.91;29.72;101783.63;104159;1290;61285;-79
2024/02/16 10:37:20;;;;;;;;;;;;;;;21.93;29.76;101782.23;103841;1292;61319;-79
2024/02/16 10:39:46;;;;;;;;;;;;;;;21.92;29.60;101780.67;104279;1292;61440;-78
2024/02/16 10:42:11;;;;;;;;;;;;;;;21.92;29.71;101783.95;104083;1289;61841;-79
2024/02/16 10:44:38;;;;;;;;;;;;;;;21.90;29.70;101779.77;104087;1291;62580;-80
2024/02/16 10:47:04;;;;;;;;;;;;;;;21.83;29.60;101773.69;104423;1290;61963;-79
2024/02/16 10:49:30;;;;;;;;;;;;;;;21.80;29.57;101771.94;104285;1291;61299;-81
2024/02/16 10:51:57;;;;;;;;;;;;;;;21.76;29.63;101768.55;104489;1289;61337;-79
2024/02/16 10:54:23;;;;;;;;;;;;;;;21.64;29.35;101769.63;104035;1293;61833;-79
2024/02/16 10:56:48;;;;;;;;;;;;;;;21.60;29.48;101770.92;104136;1291;61222;-80
2024/02/16 10:59:16;;;;;;;;;;;;;;;21.61;29.72;101763.89;105793;1291;61453;-81
2024/02/16 11:01:42;;;;;;;;;;;;;;;21.57;29.50;101766.23;105714;1289;58884;-81
2024/02/16 11:04:10;;;;;;;;;;;;;;;21.38;29.12;101768.02;105897;1290;60458;-80
2024/02/16 11:06:49;;;;;;;;;;;;;;;21.12;29.49;101759.82;105982;1291;73573;-81
2024/02/16 11:09:27;;;;;;;;;;;;;;;20.81;29.04;101760.15;106033;1289;74588;-81
2024/02/16 11:11:54;;;;;;;;;;;;;;;20.61;29.30;101759.19;105886;1293;60910;-80
2024/02/16 11:14:20;;;;;;;;;;;;;;;20.64;29.60;101756.03;104753;1291;59720;-80
2024/02/16 11:16:47;;;;;;;;;;;;;;;20.69;29.50;101749.83;104369;1289;73315;-81
2024/02/16 11:19:16;;;;;;;;;;;;;;;20.75;29.47;101747.23;104454;1290;61293;-85
2024/02/16 11:21:56;;;;;;;;;;;;;;;20.73;29.41;101748.20;104772;1292;60667;-82
2024/02/16 11:24:27;;;;;;;;;;;;;;;20.63;29.28;101748.39;104291;1289;60265;-82
2024/02/16 11:26:54;;;;;;;;;;;;;;;20.56;29.18;101751.41;104133;1289;73278;-82
2024/02/16 11:29:21;;;;;;;;;;;;;;;20.50;29.16;101749.23;104275;1288;75683;-80
2024/02/16 11:31:47;;;;;;;;;;;;;;;20.40;28.99;101746.90;104421;1291;59759;-80
2024/02/16 11:34:21;;;;;;;;;;;;;;;20.36;29.31;101750.52;104355;1291;61324;-79
2024/02/16 11:36:47;;;;;;;;;;;;;;;20.47;29.36;101742.10;104347;1291;72400;-79
2024/02/16 11:39:16;;;;;;;;;;;;;;;20.58;29.31;101735.73;104080;1294;61328;-80
2024/02/16 11:41:42;;;;;;;;;;;;;;;20.68;29.27;101731.86;104217;1291;63021;-81
2024/02/16 11:44:08;;;;;;;;;;;;;;;20.74;29.27;101729.90;104100;1288;61625;-81
2024/02/16 11:46:35;;;;;;;;;;;;;;;20.81;29.16;101728.84;103913;1291;61451;-81
2024/02/16 11:49:04;;;;;;;;;;;;;;;20.82;29.18;101722.53;103930;1291;59383;-80
2024/02/16 11:51:30;;;;;;;;;;;;;;;20.82;29.13;101719.47;104098;1289;61322;-80
2024/02/16 11:53:56;;;;;;;;;;;;;;;20.86;29.00;101713.70;104562;1290;61304;-82
2024/02/16 11:56:24;;;;;;;;;;;;;;;20.90;28.94;101715.27;104590;1291;61114;-80
2024/02/16 11:58:50;;;;;;;;;;;;;;;20.90;28.89;101710.27;104300;1291;74774;-84
2024/02/16 12:01:16;;;;;;;;;;;;;;;20.91;28.74;101713.60;104447;1291;61382;-81
2024/02/16 12:03:42;;;;;;;;;;;;;;;20.87;28.57;101708.98;105022;1289;61356;-81
2024/02/16 12:06:08;;;;;;;;;;;;;;;20.83;28.55;101705.83;104694;1293;61037;-80
2024/02/16 12:08:34;;;;;;;;;;;;;;;20.77;28.63;101706.85;104961;1289;61465;-81
2024/02/16 12:10:59;;;;;;;;;;;;;;;20.73;28.73;101710.29;104915;1290;61408;-82
2024/02/16 12:13:25;;;;;;;;;;;;;;;20.70;28.75;101718.84;104811;1289;61328;-80
2024/02/16 12:15:51;;;;;;;;;;;;;;;20.60;28.71;101716.33;104357;1291;60204;-80
2024/02/16 12:18:23;;;;;;;;;;;;;;;20.61;28.83;101717.34;104667;1290;60991;-81
2024/02/16 12:20:58;;;;;;;;;;;;;;;20.67;28.80;101713.48;104243;1290;74655;-81
2024/02/16 12:23:23;;;;;;;;;;;;;;;20.72;28.72;101706.76;104621;1290;61195;-80